• Join FlightAware (Why Join?)
  • Login
  • US Flag 
09:31PM EDT


 

Airport Tracker/Info


-or-


 

Live Flight TrackerFlight Track Log ✈ AWE3210 ✈ 29-Sep-2013 ✈ KCMH - KCLT

Flight Track Log - Related Links

Times and Time Zones

All times are in EDT time to prevent confusion due to time zone crossing. See the AWE3210 flight status page for this flight to view local times or setup timezone preferences in your user account.

Time Position Orientation Groundspeed Altitude Reporting Facility
EDT Latitude Longitude Course Direction KTS MPH feet Rate Location/Type
08:35PM 40.0019 -82.9125 278° West 142 163 1,300  Level Indianapolis Center
08:36PM 40.0108 -82.9961 278° West 203 234 3,900 1,740 Climbing Indianapolis Center
08:36PM 40.0103 -82.9950 123° Southeast 181 208 3,900 1,980 Level Indianapolis Center
08:37PM 39.9733 -83.0364 221° Southwest 257 296 5,700 1,920 Climbing Indianapolis Center
08:37PM 39.9664 -83.0322 155° Southeast 232 267 5,900 1,980 Climbing Indianapolis Center
08:38PM 39.9000 -82.9881 153° Southeast 267 307 8,300 2,280 Climbing Indianapolis Center
08:39PM 39.8206 -82.9711 171° South 285 328 10,700 2,160 Climbing Indianapolis Center
08:40PM 39.7150 -82.9483 171° South 317 365 12,800 2,040 Climbing Indianapolis Center
08:41PM 39.6217 -82.9611 186° South 332 382 14,900 1,920 Climbing Indianapolis Center
08:42PM 39.5261 -82.9764 187° South 342 394 16,800 1,620 Climbing Indianapolis Center
08:44PM 39.4269 -82.9897 186° South 353 406 18,300 1,560 Climbing Indianapolis Center
08:45PM 39.3222 -82.9883 179° South 381 438 20,000 1,440 Climbing Indianapolis Center
08:46PM 39.2206 -82.9567 166° South 378 435 21,300 1,260 Climbing Indianapolis Center
08:47PM 39.0994 -82.9181 166° South 388 447 22,600 1,260 Climbing Indianapolis Center
08:48PM 38.9889 -82.8833 166° South 404 465 23,900 1,200 Climbing Indianapolis Center
08:49PM 38.8756 -82.8492 167° South 416 479 25,100 1,020 Climbing Indianapolis Center
08:50PM 38.7614 -82.8156 167° South 420 483 26,000 840 Climbing Indianapolis Center
08:51PM 38.6261 -82.7728 166° South 450 518 26,900 1,380 Climbing Indianapolis Center
08:52PM 38.5022 -82.7350 167° South 456 525 28,900 840 Climbing Indianapolis Center
08:53PM 38.3894 -82.7014 167° South 418 481 28,700 -720 Descending Indianapolis Center
08:54PM 38.2756 -82.6678 167° South 417 480 27,500 -840 Descending Indianapolis Center
08:55PM 38.1494 -82.6303 167° South 458 527 27,000 -300 Descending Indianapolis Center
08:56PM 38.0236 -82.5925 167° South 465 535 27,000  Level Indianapolis Center
08:57PM 37.8811 -82.5500 167° South 450 518 27,000  Level Indianapolis Center
08:58PM 37.7619 -82.5158 167° South 441 507 27,000  Level Indianapolis Center
08:59PM 37.6400 -82.4783 166° South 447 514 27,000  Level Indianapolis Center
09:00PM 37.5200 -82.4447 167° South 441 507 27,000  Level Indianapolis Center
09:01PM 37.3975 -82.4089 167° South 446 513 27,000  Level Indianapolis Center
09:02PM 37.2764 -82.3719 166° South 445 512 27,000  Level Indianapolis Center
09:03PM 37.1544 -82.3369 167° South 445 512 27,000  Level Indianapolis Center
09:04PM 37.0289 -82.3003 167° South 454 522 27,000  Level Indianapolis Center
09:05PM 36.9033 -82.2628 167° South 459 528 27,000 -420 Level Indianapolis Center
09:06PM 36.7914 -82.2311 167° South 426 490 26,200 -1,200 Descending Indianapolis Center
09:07PM 36.6583 -82.1931 167° South 416 479 24,600 -1,140 Descending Indianapolis Center
09:08PM 36.5569 -82.1650 167° South 419 482 24,000 -360 Descending Atlanta Center
09:09PM 36.4481 -82.1314 166° South 413 475 24,000  Level Atlanta Center
09:10PM 36.3469 -82.0719 155° Southeast 408 470 24,000  Level Atlanta Center
09:11PM 36.2458 -82.0050 152° Southeast 408 470 24,000 -300 Level Atlanta Center
09:12PM 36.1467 -81.9406 152° Southeast 409 471 23,400 -6,000 Descending Atlanta Center
09:13PM 36.0497 -81.8764 152° Southeast 409 471 12,000 -2,100 Descending Atlanta Center
09:14PM 35.9567 -81.8147 152° Southeast 391 450 19,200 2,580 Climbing Atlanta Center
09:15PM 35.8661 -81.7556 152° Southeast 375 432 17,200 -1,980 Descending Atlanta Center
09:15PM 35.8217 -81.7311 156° South 362 417 16,300 -1,920 Descending Atlanta Center
09:16PM 35.7772 -81.6967 148° Southeast 365 420 15,300 -1,860 Descending Atlanta Center
09:16PM 35.7414 -81.6772 156° South 353 406 14,600 -1,920 Descending Atlanta Center
09:17PM 35.6908 -81.6428 151° Southeast 365 420 13,400 -1,920 Descending Atlanta Center
09:17PM 35.6528 -81.6211 155° Southeast 355 409 12,700 -1,440 Descending Atlanta Center
09:18PM 35.6103 -81.5864 146° Southeast 360 414 12,000 -780 Descending Atlanta Center
09:18PM 35.5803 -81.5492 135° Southeast 371 427 12,000  Level Atlanta Center
09:19PM 35.5436 -81.4917 128° Southeast 360 414 12,000 -360 Level Atlanta Center
09:19PM 35.5136 -81.4439 128° Southeast 371 427 11,600 -900 Descending Atlanta Center
09:20PM 35.4792 -81.3967 132° Southeast 365 420 11,100 -1,320 Descending Atlanta Center
09:20PM 35.4486 -81.3442 126° Southeast 336 387 10,300 -1,200 Descending Atlanta Center
09:21PM 35.4186 -81.2992 129° Southeast 345 397 9,900 -300 Descending Atlanta Center
09:21PM 35.3947 -81.2642 130° Southeast 290 334 10,000 60 Climbing Atlanta Center
09:22PM 35.3647 -81.2244 133° Southeast 308 354 10,000  Level Atlanta Center
09:22PM 35.3472 -81.1947 126° Southeast 295 339 10,000  Level Atlanta Center
09:23PM 35.3172 -81.1525 131° Southeast 302 348 10,000  Level Atlanta Center
09:23PM 35.2914 -81.1178 132° Southeast 300 345 10,000  Level Atlanta Center
09:24PM 35.2589 -81.0781 135° Southeast 302 348 10,000  Level Atlanta Center
09:24PM 35.2233 -81.0717 172° South 299 344 10,000 -300 Level Atlanta Center
09:25PM 35.1775 -81.0683 177° South 281 323 9,700 -1,500 Descending Atlanta Center
09:25PM 35.1356 -81.0622 173° South 290 334 8,500 -1,980 Descending Atlanta Center
09:26PM 35.0625 -81.0572 177° South 258 297 6,900 -1,860 Descending Atlanta Center
09:27PM 34.9933 -81.0519 176° South 242 278 4,800 -1,320 Descending Atlanta Center
09:29PM 34.9753 -80.9944 111° Southeast 175 201 4,000 -660 Descending Atlanta Center
09:30PM 35.0206 -80.9725 22° Northeast 174 200 3,400 -540 Descending Atlanta Center
09:31PM 35.0639 -80.9481 25° Northeast 185 213 3,000 -600 Descending Atlanta Center
09:31PM 35.1117 -80.9464 North 179 206 2,400 -780 Descending Atlanta Center
09:33PM 35.1517 -80.9500 356° North 149 171 1,600 -840 Descending Atlanta Center
09:34PM 35.1911 -80.9508 359° North 133 153 800 -840 Descending Atlanta Center